Time;durP1;ratioP1;P1;durP2;ratioP2;P2;SDS_P1;SDS_P2;PMS_P1;PMS_P2;Temp;Humidity;BMP_temperature;BMP_pressure;BME280_temperature;BME280_humidity;BME280_pressure;Samples;Min_cycle;Max_cycle;Signal;HPM_P1;HPM_P2
2024/03/12 00:02:10;;;;;;;;;;;4.40;99.90;;;;;;4998581;28;20425;-63
2024/03/12 00:04:37;;;;;;;;;;;4.40;99.90;;;;;;4998696;28;19961;-63
2024/03/12 00:07:05;;;;;;;;;;;4.50;99.90;;;;;;4999292;28;19933;-63
2024/03/12 00:09:37;;;;;;;;;;;4.60;99.90;;;;;;4998262;28;19929;-63
2024/03/12 00:12:09;;;;;;;;;;;4.60;99.90;;;;;;4998541;28;21308;-63
2024/03/12 00:14:40;;;;;;;;;;;4.50;99.90;;;;;;4983182;28;19961;-63
2024/03/12 00:17:14;;;;;;;;;;;4.50;99.90;;;;;;4998517;28;19954;-63
2024/03/12 00:19:48;;;;;;;;;;;4.40;99.90;;;;;;4998567;28;19930;-63
2024/03/12 00:22:22;;;;;;;;;;;4.30;99.90;;;;;;4986399;28;20020;-63
2024/03/12 00:24:49;;;;;;;;;;;4.30;99.90;;;;;;4995748;28;19937;-63
2024/03/12 00:27:22;;;;;;;;;;;4.30;99.90;;;;;;4998659;28;19925;-63
2024/03/12 00:29:55;;;;;;;;;;;4.20;99.90;;;;;;4986629;28;19926;-64
2024/03/12 00:32:27;;;;;;;;;;;4.30;99.90;;;;;;5001424;28;20301;-63
2024/03/12 00:34:59;;;;;;;;;;;4.30;99.90;;;;;;4997827;28;19926;-64
2024/03/12 00:37:32;;;;;;;;;;;4.20;99.90;;;;;;4985109;28;19926;-63
2024/03/12 00:40:11;;;;;;;;;;;4.30;99.90;;;;;;4998716;28;19929;-64
2024/03/12 00:42:46;;;;;;;;;;;4.30;99.90;;;;;;4981174;28;19936;-63
2024/03/12 00:45:25;;;;;;;;;;;4.40;99.90;;;;;;4997808;28;19933;-63
2024/03/12 00:47:57;;;;;;;;;;;4.40;99.90;;;;;;4991320;28;19926;-63
2024/03/12 00:50:29;;;;;;;;;;;4.40;99.90;;;;;;4978961;28;19929;-63
2024/03/12 00:53:03;;;;;;;;;;;4.40;99.90;;;;;;4984903;28;19964;-63
2024/03/12 00:55:40;;;;;;;;;;;4.40;99.90;;;;;;4972681;28;20356;-63
2024/03/12 00:58:12;;;;;;;;;;;4.40;99.90;;;;;;4985899;28;20448;-63
2024/03/12 01:00:45;;;;;;;;;;;4.20;99.90;;;;;;4968870;28;19973;-63
2024/03/12 01:03:17;;;;;;;;;;;4.20;99.90;;;;;;4985550;28;19925;-63
2024/03/12 01:05:48;;;;;;;;;;;4.20;99.90;;;;;;4982572;28;19941;-62
2024/03/12 01:08:20;;;;;;;;;;;4.10;99.90;;;;;;4974904;28;19932;-63
2024/03/12 01:10:52;;;;;;;;;;;4.20;99.90;;;;;;4984904;28;19932;-63
2024/03/12 01:13:24;;;;;;;;;;;4.20;99.90;;;;;;4977170;28;19932;-63
2024/03/12 01:15:57;;;;;;;;;;;4.20;99.90;;;;;;4981505;28;20325;-63
2024/03/12 01:18:31;;;;;;;;;;;4.20;99.90;;;;;;4979172;28;19932;-62
2024/03/12 01:20:58;;;;;;;;;;;4.20;99.90;;;;;;4982247;28;20370;-63
2024/03/12 01:23:30;;;;;;;;;;;4.20;99.90;;;;;;4986244;28;19984;-63
2024/03/12 01:26:04;;;;;;;;;;;4.10;99.90;;;;;;4974229;28;20468;-63
2024/03/12 01:28:36;;;;;;;;;;;4.10;99.90;;;;;;4973758;28;20017;-63
2024/03/12 01:31:07;;;;;;;;;;;4.10;99.90;;;;;;4986830;28;19932;-63
2024/03/12 01:33:39;;;;;;;;;;;4.10;99.90;;;;;;4967910;28;20308;-63
2024/03/12 01:36:29;;;;;;;;;;;4.10;99.90;;;;;;4973398;28;19933;-63
2024/03/12 01:39:04;;;;;;;;;;;4.10;99.90;;;;;;4984110;28;20021;-63
2024/03/12 01:41:41;;;;;;;;;;;4.10;99.90;;;;;;4978411;28;19981;-63
2024/03/12 01:44:13;;;;;;;;;;;4.10;99.90;;;;;;4975852;28;19997;-63
2024/03/12 01:46:48;;;;;;;;;;;4.10;99.90;;;;;;4986765;28;19962;-63
2024/03/12 01:49:17;;;;;;;;;;;4.10;99.90;;;;;;4980518;28;20421;-63
2024/03/12 01:51:49;;;;;;;;;;;4.10;99.90;;;;;;4984773;28;19937;-63
2024/03/12 01:54:21;;;;;;;;;;;4.00;99.90;;;;;;4977317;28;19957;-63
2024/03/12 01:56:52;;;;;;;;;;;4.00;99.90;;;;;;4974545;28;19929;-63
2024/03/12 01:59:24;;;;;;;;;;;4.00;99.90;;;;;;4965332;28;19932;-63
2024/03/12 02:01:59;;;;;;;;;;;4.00;99.90;;;;;;4984896;28;19925;-63
2024/03/12 02:04:31;;;;;;;;;;;4.10;99.90;;;;;;4981496;28;19930;-63
2024/03/12 02:07:03;;;;;;;;;;;4.10;99.90;;;;;;4976446;28;19965;-62
2024/03/12 02:09:35;;;;;;;;;;;4.10;99.90;;;;;;4980228;28;20337;-63
2024/03/12 02:12:07;;;;;;;;;;;4.10;99.90;;;;;;4972086;28;20427;-63
2024/03/12 02:14:39;;;;;;;;;;;4.10;99.90;;;;;;4979451;28;20025;-63
2024/03/12 02:17:11;;;;;;;;;;;4.10;99.90;;;;;;4984261;28;20008;-63
2024/03/12 02:19:37;;;;;;;;;;;4.10;99.90;;;;;;4981748;28;19925;-63
2024/03/12 02:22:05;;;;;;;;;;;4.10;99.90;;;;;;4986778;28;19962;-63
2024/03/12 02:24:37;;;;;;;;;;;4.10;99.90;;;;;;4985613;28;19932;-63
2024/03/12 02:27:09;;;;;;;;;;;4.20;99.90;;;;;;4984749;28;20008;-63
2024/03/12 02:29:41;;;;;;;;;;;4.30;99.90;;;;;;4979721;28;19930;-63
2024/03/12 02:32:13;;;;;;;;;;;4.50;99.90;;;;;;4981246;28;19969;-62
2024/03/12 02:34:45;;;;;;;;;;;4.70;99.90;;;;;;4980842;28;20004;-63
2024/03/12 02:37:17;;;;;;;;;;;4.80;99.90;;;;;;4976889;28;19962;-63
2024/03/12 02:39:48;;;;;;;;;;;5.00;99.90;;;;;;4966355;28;19961;-63
2024/03/12 02:42:15;;;;;;;;;;;5.10;99.90;;;;;;4981480;28;19933;-63
2024/03/12 02:44:47;;;;;;;;;;;5.20;99.90;;;;;;4968021;28;19934;-63
2024/03/12 02:47:14;;;;;;;;;;;5.30;99.90;;;;;;4984564;28;20326;-63
2024/03/12 02:49:46;;;;;;;;;;;5.40;99.90;;;;;;4981367;28;19929;-63
2024/03/12 02:52:18;;;;;;;;;;;5.60;99.90;;;;;;4983771;28;19933;-63
2024/03/12 02:54:45;;;;;;;;;;;5.70;99.90;;;;;;4979544;28;20020;-63
2024/03/12 02:57:17;;;;;;;;;;;5.80;99.90;;;;;;4987414;28;19996;-63
2024/03/12 02:59:49;;;;;;;;;;;5.90;99.90;;;;;;4965415;28;20062;-63
2024/03/12 03:02:21;;;;;;;;;;;6.00;99.90;;;;;;4973491;28;20383;-63
2024/03/12 03:04:53;;;;;;;;;;;6.00;99.90;;;;;;4984286;28;19936;-63
2024/03/12 03:07:26;;;;;;;;;;;6.10;99.90;;;;;;4976985;28;19958;-63
2024/03/12 03:09:58;;;;;;;;;;;6.10;99.90;;;;;;4986518;28;19926;-63
2024/03/12 03:12:30;;;;;;;;;;;6.10;99.90;;;;;;4988575;28;20412;-63
2024/03/12 03:15:02;;;;;;;;;;;6.10;99.90;;;;;;4986310;28;20021;-63
2024/03/12 03:17:33;;;;;;;;;;;6.10;99.90;;;;;;4986126;28;19926;-63
2024/03/12 03:20:06;;;;;;;;;;;6.10;99.90;;;;;;4989529;28;20029;-63
2024/03/12 03:22:39;;;;;;;;;;;6.20;99.90;;;;;;4977184;28;19940;-63
2024/03/12 03:25:14;;;;;;;;;;;6.20;99.90;;;;;;4979937;28;19926;-63
2024/03/12 03:27:46;;;;;;;;;;;6.20;99.90;;;;;;4985291;28;20328;-63
2024/03/12 03:30:18;;;;;;;;;;;6.10;99.90;;;;;;4981144;28;20009;-63
2024/03/12 03:32:50;;;;;;;;;;;6.20;99.90;;;;;;4987506;28;20398;-63
2024/03/12 03:35:17;;;;;;;;;;;6.20;99.90;;;;;;4986977;28;19926;-63
2024/03/12 03:37:49;;;;;;;;;;;6.20;99.90;;;;;;4983995;28;20394;-63
2024/03/12 03:40:24;;;;;;;;;;;6.20;99.90;;;;;;4976731;28;19930;-63
2024/03/12 03:42:57;;;;;;;;;;;6.20;99.90;;;;;;4987684;28;19930;-63
2024/03/12 03:45:29;;;;;;;;;;;6.20;99.90;;;;;;4988245;28;19985;-63
2024/03/12 03:48:01;;;;;;;;;;;6.20;99.90;;;;;;4985506;28;19930;-63
2024/03/12 03:50:28;;;;;;;;;;;6.20;99.90;;;;;;4985741;28;19936;-63
2024/03/12 03:52:55;;;;;;;;;;;6.20;99.90;;;;;;4984791;28;19930;-63
2024/03/12 03:55:24;;;;;;;;;;;6.20;99.90;;;;;;4978574;28;19934;-63
2024/03/12 03:57:51;;;;;;;;;;;6.30;99.90;;;;;;4986571;28;19960;-63
2024/03/12 04:00:23;;;;;;;;;;;6.30;99.90;;;;;;4983648;28;19980;-63
2024/03/12 04:02:56;;;;;;;;;;;6.30;99.90;;;;;;4987053;28;19926;-63
2024/03/12 04:05:28;;;;;;;;;;;6.30;99.90;;;;;;4989005;28;19953;-63
2024/03/12 04:08:01;;;;;;;;;;;6.20;99.90;;;;;;4969634;28;19930;-63
2024/03/12 04:10:34;;;;;;;;;;;6.20;99.90;;;;;;4952972;28;19965;-63
2024/03/12 04:13:05;;;;;;;;;;;6.20;99.90;;;;;;4984125;28;20405;-63
2024/03/12 04:15:37;;;;;;;;;;;6.10;99.90;;;;;;4976242;28;19926;-63
2024/03/12 04:18:11;;;;;;;;;;;6.10;99.90;;;;;;4984589;28;19965;-63
2024/03/12 04:20:42;;;;;;;;;;;6.10;99.90;;;;;;4980112;28;19956;-63
2024/03/12 04:23:14;;;;;;;;;;;6.10;99.90;;;;;;4964077;28;20390;-63
2024/03/12 04:25:46;;;;;;;;;;;6.10;99.90;;;;;;4979538;28;20338;-63
2024/03/12 04:28:19;;;;;;;;;;;6.10;99.90;;;;;;4989253;28;20275;-63
2024/03/12 04:30:48;;;;;;;;;;;6.10;99.90;;;;;;4976289;28;19961;-63
2024/03/12 04:33:16;;;;;;;;;;;6.10;99.90;;;;;;4985491;28;19973;-63
2024/03/12 04:35:47;;;;;;;;;;;6.10;99.90;;;;;;4986295;28;20309;-63
2024/03/12 04:38:19;;;;;;;;;;;6.10;99.90;;;;;;4974239;28;20465;-63
2024/03/12 04:40:51;;;;;;;;;;;6.10;99.90;;;;;;4982323;28;20014;-63
2024/03/12 04:43:23;;;;;;;;;;;6.10;99.90;;;;;;4974129;28;20486;-63
2024/03/12 04:45:55;;;;;;;;;;;6.10;99.90;;;;;;4985913;28;19945;-63
2024/03/12 04:48:21;;;;;;;;;;;6.00;99.90;;;;;;4973563;28;19937;-63
2024/03/12 04:50:53;;;;;;;;;;;6.10;99.90;;;;;;4989254;28;19980;-63
2024/03/12 04:53:25;;;;;;;;;;;6.00;99.90;;;;;;4983509;28;19937;-62
2024/03/12 04:56:00;;;;;;;;;;;6.00;99.90;;;;;;4982424;28;19930;-63
2024/03/12 04:58:31;;;;;;;;;;;6.00;99.90;;;;;;4984667;28;20291;-63
2024/03/12 05:01:05;;;;;;;;;;;5.90;99.90;;;;;;4985516;28;19969;-63
2024/03/12 05:03:39;;;;;;;;;;;5.90;99.90;;;;;;4988457;28;19926;-63
2024/03/12 05:06:12;;;;;;;;;;;5.80;99.90;;;;;;4984641;28;19936;-64
2024/03/12 05:08:44;;;;;;;;;;;5.80;99.90;;;;;;4975697;28;20017;-64
2024/03/12 05:11:16;;;;;;;;;;;5.70;99.90;;;;;;4985955;28;20405;-63
2024/03/12 05:13:48;;;;;;;;;;;5.70;99.90;;;;;;4979487;28;20421;-63
2024/03/12 05:16:23;;;;;;;;;;;5.60;99.90;;;;;;4988130;28;19998;-64
2024/03/12 05:18:55;;;;;;;;;;;5.50;99.90;;;;;;4976050;28;19980;-63
2024/03/12 05:21:27;;;;;;;;;;;5.50;99.90;;;;;;4986892;28;19926;-65
2024/03/12 05:23:59;;;;;;;;;;;5.50;99.90;;;;;;4970105;28;19926;-63
2024/03/12 05:26:32;;;;;;;;;;;5.40;99.90;;;;;;4981836;28;19936;-63
2024/03/12 05:28:59;;;;;;;;;;;5.40;99.90;;;;;;4994606;28;19992;-63
2024/03/12 05:31:32;;;;;;;;;;;5.40;99.90;;;;;;4997464;28;19984;-63
2024/03/12 05:34:00;;;;;;;;;;;5.30;99.90;;;;;;4994846;28;20306;-63
2024/03/12 05:36:40;;;;;;;;;;;5.30;99.90;;;;;;4974882;28;20364;-63
2024/03/12 05:50:37;;;;;;;;;;;5.20;99.90;;;;;;4987764;28;19926;-63
2024/03/12 05:53:09;;;;;;;;;;;5.20;99.90;;;;;;4983045;28;19926;-63
2024/03/12 05:55:42;;;;;;;;;;;5.30;99.90;;;;;;4988476;28;19941;-63
2024/03/12 05:58:15;;;;;;;;;;;5.30;99.90;;;;;;4986308;28;19965;-63
2024/03/12 06:00:48;;;;;;;;;;;5.40;99.90;;;;;;4982235;28;19997;-63
2024/03/12 06:03:20;;;;;;;;;;;5.40;99.90;;;;;;4983929;28;20020;-63
2024/03/12 06:05:52;;;;;;;;;;;5.40;99.90;;;;;;4970675;28;19937;-63
2024/03/12 06:08:21;;;;;;;;;;;5.40;99.90;;;;;;4981196;28;20009;-63
2024/03/12 06:10:53;;;;;;;;;;;5.40;99.90;;;;;;4989138;28;19941;-63
2024/03/12 06:13:25;;;;;;;;;;;5.40;99.90;;;;;;4982193;28;19926;-63
2024/03/12 06:15:57;;;;;;;;;;;5.40;99.90;;;;;;4985530;28;19926;-63
2024/03/12 06:18:29;;;;;;;;;;;5.40;99.90;;;;;;4987128;28;20019;-63
2024/03/12 06:21:00;;;;;;;;;;;5.50;99.90;;;;;;4973809;28;20309;-63
2024/03/12 06:23:32;;;;;;;;;;;5.50;99.90;;;;;;4985219;28;19957;-63
2024/03/12 06:26:04;;;;;;;;;;;5.50;99.90;;;;;;4972198;28;19949;-63
2024/03/12 06:28:36;;;;;;;;;;;5.50;99.90;;;;;;4986449;28;19996;-63
2024/03/12 06:31:08;;;;;;;;;;;5.60;99.90;;;;;;4979572;28;19926;-63
2024/03/12 06:33:42;;;;;;;;;;;5.60;99.90;;;;;;4985392;28;20008;-63
2024/03/12 06:36:14;;;;;;;;;;;5.60;99.90;;;;;;4990694;28;19926;-63
2024/03/12 06:38:48;;;;;;;;;;;5.70;99.90;;;;;;4985380;28;20008;-63
2024/03/12 06:41:20;;;;;;;;;;;5.70;99.90;;;;;;4975230;28;19988;-63
2024/03/12 06:43:52;;;;;;;;;;;5.70;99.90;;;;;;4986302;28;20321;-64
2024/03/12 06:46:25;;;;;;;;;;;5.70;99.90;;;;;;4987065;28;19925;-63
2024/03/12 06:48:58;;;;;;;;;;;5.70;99.90;;;;;;4987264;28;19926;-63
2024/03/12 06:51:32;;;;;;;;;;;5.80;99.90;;;;;;4987920;28;20648;-63
2024/03/12 06:54:03;;;;;;;;;;;5.80;99.90;;;;;;4982114;28;19936;-63
2024/03/12 06:56:42;;;;;;;;;;;5.90;99.90;;;;;;4985892;28;19972;-63
2024/03/12 06:59:15;;;;;;;;;;;5.90;99.90;;;;;;4985371;28;20013;-62
2024/03/12 07:01:51;;;;;;;;;;;5.90;99.90;;;;;;4979298;28;19930;-63
2024/03/12 07:04:34;;;;;;;;;;;5.90;99.90;;;;;;4973667;28;19981;-63
2024/03/12 07:07:06;;;;;;;;;;;5.90;99.90;;;;;;4981713;28;20337;-63
2024/03/12 07:09:40;;;;;;;;;;;5.90;99.90;;;;;;4986047;28;19926;-63
2024/03/12 07:12:16;;;;;;;;;;;6.00;99.90;;;;;;4986826;28;19934;-63
2024/03/12 07:14:54;;;;;;;;;;;6.10;99.90;;;;;;4975895;28;19996;-63
2024/03/12 07:17:27;;;;;;;;;;;6.10;99.90;;;;;;4987635;28;20389;-65
2024/03/12 07:19:59;;;;;;;;;;;6.10;99.90;;;;;;4984890;28;19926;-63
2024/03/12 07:22:30;;;;;;;;;;;6.10;99.90;;;;;;4974100;28;19936;-63
2024/03/12 07:25:03;;;;;;;;;;;6.20;99.90;;;;;;4974037;28;19989;-63
2024/03/12 07:27:35;;;;;;;;;;;6.20;99.90;;;;;;4969378;28;19938;-64
2024/03/12 07:30:03;;;;;;;;;;;6.20;99.90;;;;;;4985803;28;19937;-63
2024/03/12 07:32:35;;;;;;;;;;;6.30;99.90;;;;;;4975800;28;19932;-63
2024/03/12 07:35:07;;;;;;;;;;;6.40;99.90;;;;;;4985214;28;19925;-63
2024/03/12 07:37:40;;;;;;;;;;;6.40;99.90;;;;;;4985600;28;20377;-62
2024/03/12 07:40:15;;;;;;;;;;;6.50;99.90;;;;;;4972421;28;20610;-63
2024/03/12 07:42:47;;;;;;;;;;;6.50;99.90;;;;;;4984047;28;19926;-63
2024/03/12 07:45:19;;;;;;;;;;;6.50;99.90;;;;;;4974283;28;19933;-63
2024/03/12 07:47:46;;;;;;;;;;;6.50;99.90;;;;;;4974340;28;19926;-63
2024/03/12 07:50:18;;;;;;;;;;;6.50;99.90;;;;;;4980529;28;19926;-63
2024/03/12 07:52:50;;;;;;;;;;;6.50;99.90;;;;;;4986043;28;20025;-63
2024/03/12 07:55:22;;;;;;;;;;;6.50;99.90;;;;;;4962585;28;19934;-63
2024/03/12 07:57:55;;;;;;;;;;;6.60;99.90;;;;;;4983054;28;19932;-63
2024/03/12 08:00:27;;;;;;;;;;;6.50;99.90;;;;;;4982821;28;19984;-63
2024/03/12 08:02:58;;;;;;;;;;;6.60;99.90;;;;;;4987039;28;19926;-62
2024/03/12 08:05:31;;;;;;;;;;;6.60;99.90;;;;;;4985040;28;19926;-64
2024/03/12 08:08:06;;;;;;;;;;;6.70;99.90;;;;;;4987261;28;19930;-62
2024/03/12 08:10:40;;;;;;;;;;;6.80;99.90;;;;;;4984713;28;20013;-63
2024/03/12 08:13:12;;;;;;;;;;;6.80;99.90;;;;;;4985005;28;19937;-62
2024/03/12 08:15:45;;;;;;;;;;;6.80;99.90;;;;;;4983536;28;19930;-62
2024/03/12 08:18:17;;;;;;;;;;;6.90;99.90;;;;;;4973311;28;19926;-63
2024/03/12 08:20:49;;;;;;;;;;;7.00;99.90;;;;;;4980426;28;20020;-62
2024/03/12 08:23:16;;;;;;;;;;;7.00;99.90;;;;;;4985525;28;19932;-63
2024/03/12 08:25:43;;;;;;;;;;;7.00;99.90;;;;;;4983661;28;20302;-62
2024/03/12 08:28:16;;;;;;;;;;;7.00;99.90;;;;;;4983975;28;20356;-63
2024/03/12 08:30:48;;;;;;;;;;;7.10;99.90;;;;;;4979559;28;20406;-63
2024/03/12 08:33:20;;;;;;;;;;;7.20;99.90;;;;;;4987025;28;19925;-63
2024/03/12 08:35:51;;;;;;;;;;;7.20;99.90;;;;;;4962507;28;19930;-62
2024/03/12 08:38:23;;;;;;;;;;;7.20;99.90;;;;;;4987129;28;19934;-63
2024/03/12 08:40:56;;;;;;;;;;;7.20;99.90;;;;;;4989580;28;19981;-63
2024/03/12 08:43:27;;;;;;;;;;;7.30;99.90;;;;;;4986256;28;20420;-63
2024/03/12 08:45:54;;;;;;;;;;;7.40;99.90;;;;;;4985805;28;20349;-63
2024/03/12 08:48:26;;;;;;;;;;;7.50;99.90;;;;;;4978364;28;19926;-63
2024/03/12 08:50:57;;;;;;;;;;;7.60;99.90;;;;;;4980716;28;19932;-63
2024/03/12 08:53:35;;;;;;;;;;;7.60;99.90;;;;;;4986630;28;19929;-63
2024/03/12 08:56:07;;;;;;;;;;;7.60;99.90;;;;;;4983769;28;19936;-63
2024/03/12 08:58:39;;;;;;;;;;;7.70;99.90;;;;;;4983870;28;19930;-63
2024/03/12 09:01:11;;;;;;;;;;;7.70;99.90;;;;;;4984312;28;19980;-63
2024/03/12 09:03:42;;;;;;;;;;;7.70;99.90;;;;;;4983613;28;19989;-63
2024/03/12 09:06:16;;;;;;;;;;;7.70;99.90;;;;;;4977975;28;19965;-63
2024/03/12 09:08:50;;;;;;;;;;;7.70;99.90;;;;;;4975352;28;20017;-63
2024/03/12 09:11:22;;;;;;;;;;;7.70;99.90;;;;;;4988714;28;19934;-63
2024/03/12 09:13:54;;;;;;;;;;;7.70;99.90;;;;;;4976759;28;19936;-62
2024/03/12 09:16:25;;;;;;;;;;;7.70;99.90;;;;;;4994201;28;19936;-63
2024/03/12 09:18:57;;;;;;;;;;;7.60;99.90;;;;;;4994554;28;20417;-63
2024/03/12 09:21:29;;;;;;;;;;;7.60;99.90;;;;;;4980629;28;19933;-63
2024/03/12 09:24:00;;;;;;;;;;;7.50;99.90;;;;;;4985279;28;19952;-63
2024/03/12 09:26:31;;;;;;;;;;;7.50;99.90;;;;;;4984885;28;19933;-63
2024/03/12 09:29:05;;;;;;;;;;;7.60;99.90;;;;;;4972884;28;19965;-63
2024/03/12 09:31:33;;;;;;;;;;;7.50;99.90;;;;;;4988493;28;19930;-63
2024/03/12 09:34:04;;;;;;;;;;;7.50;99.90;;;;;;4980282;28;20418;-63
2024/03/12 09:36:36;;;;;;;;;;;7.50;99.90;;;;;;4974191;28;20021;-64
2024/03/12 09:39:10;;;;;;;;;;;7.60;99.90;;;;;;4978549;28;19961;-63
2024/03/12 09:41:46;;;;;;;;;;;7.60;99.90;;;;;;4977978;28;20418;-63
2024/03/12 09:44:20;;;;;;;;;;;7.70;99.90;;;;;;4983340;28;19925;-63
2024/03/12 09:46:54;;;;;;;;;;;7.80;99.90;;;;;;4985095;28;19969;-63
2024/03/12 09:49:26;;;;;;;;;;;7.80;99.90;;;;;;4983357;28;19932;-63
2024/03/12 09:51:58;;;;;;;;;;;7.90;99.90;;;;;;4983127;28;20368;-63
2024/03/12 09:54:29;;;;;;;;;;;8.00;99.90;;;;;;4985481;28;20045;-63
2024/03/12 09:57:02;;;;;;;;;;;8.00;99.90;;;;;;4984069;28;19929;-62
2024/03/12 09:59:30;;;;;;;;;;;8.00;99.90;;;;;;4981838;28;19926;-64
2024/03/12 10:02:03;;;;;;;;;;;8.00;99.90;;;;;;4985323;28;20009;-63
2024/03/12 10:04:35;;;;;;;;;;;8.10;99.90;;;;;;4969570;28;20314;-63
2024/03/12 10:07:06;;;;;;;;;;;8.20;99.90;;;;;;4977960;28;19934;-63
2024/03/12 10:09:39;;;;;;;;;;;8.20;99.90;;;;;;4987797;28;20493;-63
2024/03/12 10:12:11;;;;;;;;;;;8.30;99.90;;;;;;4984175;28;21161;-63
2024/03/12 10:14:43;;;;;;;;;;;8.20;99.90;;;;;;4982671;28;19930;-64
2024/03/12 10:17:13;;;;;;;;;;;8.30;99.90;;;;;;4983358;28;19981;-62
2024/03/12 10:19:48;;;;;;;;;;;8.30;99.90;;;;;;4983786;28;20347;-63
2024/03/12 10:22:24;;;;;;;;;;;8.20;99.90;;;;;;4977665;28;19925;-63
2024/03/12 10:25:06;;;;;;;;;;;8.20;99.90;;;;;;4983067;28;19934;-63
2024/03/12 10:27:56;;;;;;;;;;;8.10;99.90;;;;;;4981011;28;19926;-63
2024/03/12 10:30:30;;;;;;;;;;;8.10;99.90;;;;;;4985019;28;20457;-63
2024/03/12 10:33:13;;;;;;;;;;;8.10;99.90;;;;;;4985260;28;19965;-63
2024/03/12 10:35:45;;;;;;;;;;;8.20;99.90;;;;;;4979706;28;20025;-63
2024/03/12 10:38:27;;;;;;;;;;;8.30;99.90;;;;;;4983772;28;19925;-63
2024/03/12 10:41:25;;;;;;;;;;;8.40;99.90;;;;;;4965402;28;19926;-63
2024/03/12 10:44:03;;;;;;;;;;;8.50;99.90;;;;;;4982721;28;19930;-64
2024/03/12 10:46:35;;;;;;;;;;;8.50;99.90;;;;;;4983295;28;19926;-63
2024/03/12 10:49:10;;;;;;;;;;;8.60;99.90;;;;;;4983781;28;20028;-63
2024/03/12 10:51:45;;;;;;;;;;;8.70;99.90;;;;;;4970113;28;20000;-63
2024/03/12 10:54:16;;;;;;;;;;;8.80;99.90;;;;;;4975554;28;20020;-63
2024/03/12 10:56:50;;;;;;;;;;;8.90;99.90;;;;;;4985981;28;19926;-64
2024/03/12 10:59:19;;;;;;;;;;;9.00;99.90;;;;;;4981828;28;19969;-63
2024/03/12 11:01:50;;;;;;;;;;;9.10;99.90;;;;;;4984002;28;20402;-63
2024/03/12 11:04:22;;;;;;;;;;;9.10;99.90;;;;;;4982916;28;19930;-63
2024/03/12 11:06:57;;;;;;;;;;;9.10;99.90;;;;;;4984998;28;20398;-63
2024/03/12 11:09:28;;;;;;;;;;;9.20;99.90;;;;;;4981868;28;19934;-63
2024/03/12 11:12:00;;;;;;;;;;;9.30;99.90;;;;;;4966569;28;19965;-63
2024/03/12 11:14:32;;;;;;;;;;;9.30;99.90;;;;;;4971462;28;19930;-63
2024/03/12 11:17:23;;;;;;;;;;;9.20;99.90;;;;;;4974358;28;20314;-63
2024/03/12 11:19:58;;;;;;;;;;;9.10;99.90;;;;;;4982726;28;19969;-63
2024/03/12 11:22:30;;;;;;;;;;;9.10;99.90;;;;;;4985425;28;19929;-63
2024/03/12 11:25:08;;;;;;;;;;;9.00;99.90;;;;;;4975665;28;19930;-63
2024/03/12 11:27:43;;;;;;;;;;;8.90;99.90;;;;;;4973950;28;19936;-63
2024/03/12 11:30:17;;;;;;;;;;;8.80;99.90;;;;;;4975591;28;20424;-63
2024/03/12 11:32:50;;;;;;;;;;;8.70;99.90;;;;;;4986886;28;19934;-63
2024/03/12 11:35:22;;;;;;;;;;;8.70;99.90;;;;;;4988180;28;19932;-63
2024/03/12 11:37:58;;;;;;;;;;;8.70;99.90;;;;;;4987967;28;19930;-63
2024/03/12 11:40:31;;;;;;;;;;;8.70;99.90;;;;;;4983692;28;20317;-63
2024/03/12 11:43:03;;;;;;;;;;;8.80;99.90;;;;;;4983739;28;20382;-63
2024/03/12 11:45:37;;;;;;;;;;;8.80;99.90;;;;;;4965768;28;19932;-63
2024/03/12 11:48:09;;;;;;;;;;;8.80;99.90;;;;;;4974667;28;20016;-63
2024/03/12 11:50:44;;;;;;;;;;;8.70;99.90;;;;;;4969794;28;20024;-63
2024/03/12 11:53:17;;;;;;;;;;;8.60;99.90;;;;;;4974470;28;19936;-63
2024/03/12 11:56:10;;;;;;;;;;;8.70;99.90;;;;;;4988785;28;19930;-63
2024/03/12 11:58:46;;;;;;;;;;;8.60;99.90;;;;;;4968767;28;19936;-63
2024/03/12 12:01:21;;;;;;;;;;;8.50;99.90;;;;;;4987111;28;19941;-63
2024/03/12 12:03:55;;;;;;;;;;;8.50;99.90;;;;;;4989656;28;19964;-63
2024/03/12 12:06:22;;;;;;;;;;;8.40;99.90;;;;;;4973427;28;20008;-63
2024/03/12 12:08:55;;;;;;;;;;;8.30;99.90;;;;;;4983281;28;19962;-63
2024/03/12 12:11:22;;;;;;;;;;;8.20;99.90;;;;;;4982876;28;19930;-63
2024/03/12 12:13:57;;;;;;;;;;;8.20;99.90;;;;;;4981507;28;19964;-63
2024/03/12 12:16:28;;;;;;;;;;;8.10;99.90;;;;;;4983148;28;20593;-62
2024/03/12 12:19:08;;;;;;;;;;;8.10;99.90;;;;;;4981244;28;19961;-63
2024/03/12 12:21:41;;;;;;;;;;;8.10;99.90;;;;;;4965372;28;20476;-63
2024/03/12 12:24:13;;;;;;;;;;;8.10;99.90;;;;;;4987727;28;19929;-63
2024/03/12 12:26:42;;;;;;;;;;;8.10;99.90;;;;;;4984937;28;19932;-63
2024/03/12 12:29:15;;;;;;;;;;;8.10;99.90;;;;;;4973642;28;19937;-63
2024/03/12 12:31:47;;;;;;;;;;;8.20;99.90;;;;;;4985293;28;20275;-63
2024/03/12 12:34:20;;;;;;;;;;;8.10;99.90;;;;;;4974921;28;19980;-63
2024/03/12 12:36:53;;;;;;;;;;;8.10;99.90;;;;;;4988035;28;20021;-63
2024/03/12 12:39:27;;;;;;;;;;;8.00;99.90;;;;;;4997853;28;19936;-63
2024/03/12 12:41:59;;;;;;;;;;;8.00;99.90;;;;;;4971459;28;19929;-63
2024/03/12 12:44:31;;;;;;;;;;;8.10;99.90;;;;;;4990209;28;20020;-63
2024/03/12 12:47:04;;;;;;;;;;;8.20;99.90;;;;;;4984410;28;20024;-62
2024/03/12 12:49:40;;;;;;;;;;;8.20;99.90;;;;;;4976412;28;19952;-63
2024/03/12 12:52:13;;;;;;;;;;;8.30;99.90;;;;;;4982487;28;19926;-63
2024/03/12 12:54:48;;;;;;;;;;;8.30;99.90;;;;;;4988364;28;19930;-63
2024/03/12 12:57:21;;;;;;;;;;;8.40;99.90;;;;;;4970822;28;19926;-63
2024/03/12 12:59:49;;;;;;;;;;;8.50;99.90;;;;;;4982719;28;19926;-63
2024/03/12 13:02:22;;;;;;;;;;;8.70;99.90;;;;;;4986975;28;19973;-63
2024/03/12 13:04:58;;;;;;;;;;;8.80;99.90;;;;;;4980072;28;19937;-64
2024/03/12 13:07:32;;;;;;;;;;;8.90;99.90;;;;;;4983245;28;19938;-63
2024/03/12 13:10:20;;;;;;;;;;;8.90;99.90;;;;;;4985833;28;19936;-63
2024/03/12 13:12:47;;;;;;;;;;;9.00;99.90;;;;;;4973007;28;19969;-63
2024/03/12 13:15:22;;;;;;;;;;;9.00;99.90;;;;;;4974187;28;19934;-63
2024/03/12 13:17:51;;;;;;;;;;;8.80;99.90;;;;;;4991523;28;19932;-63
2024/03/12 13:20:24;;;;;;;;;;;8.80;99.90;;;;;;4974425;28;20012;-64
2024/03/12 13:22:56;;;;;;;;;;;8.80;99.90;;;;;;4985421;28;19973;-63
2024/03/12 13:25:28;;;;;;;;;;;8.70;99.90;;;;;;4991833;28;19926;-63
2024/03/12 13:28:00;;;;;;;;;;;8.60;99.90;;;;;;4985728;28;20301;-64
2024/03/12 13:30:33;;;;;;;;;;;8.70;99.90;;;;;;4990122;28;19930;-63
2024/03/12 13:33:00;;;;;;;;;;;8.70;99.90;;;;;;4987549;28;20302;-63
2024/03/12 13:35:27;;;;;;;;;;;8.70;99.90;;;;;;4993645;28;19933;-63
2024/03/12 13:38:00;;;;;;;;;;;8.80;99.90;;;;;;4978821;28;20245;-63
2024/03/12 13:40:32;;;;;;;;;;;8.80;99.90;;;;;;4996950;28;19926;-63
2024/03/12 13:43:03;;;;;;;;;;;8.70;99.90;;;;;;4980832;28;19930;-65
2024/03/12 13:45:30;;;;;;;;;;;8.70;99.90;;;;;;4984498;28;20037;-64
2024/03/12 13:48:04;;;;;;;;;;;8.80;99.90;;;;;;4974781;28;19937;-64
2024/03/12 13:50:36;;;;;;;;;;;8.80;99.90;;;;;;4967272;28;20389;-64
2024/03/12 13:53:08;;;;;;;;;;;8.80;99.90;;;;;;4986752;28;19930;-64
2024/03/12 13:55:40;;;;;;;;;;;8.80;99.90;;;;;;4988195;28;20461;-64
2024/03/12 13:58:12;;;;;;;;;;;8.80;99.90;;;;;;4971138;28;19937;-64
2024/03/12 14:00:44;;;;;;;;;;;8.90;99.90;;;;;;4972745;28;20037;-64
2024/03/12 14:03:16;;;;;;;;;;;8.90;99.90;;;;;;4983463;28;19952;-64
2024/03/12 14:05:46;;;;;;;;;;;8.90;99.90;;;;;;4967847;28;19968;-64
2024/03/12 14:08:18;;;;;;;;;;;8.90;99.90;;;;;;4991215;28;19926;-64
2024/03/12 14:10:51;;;;;;;;;;;8.90;99.90;;;;;;4976064;28;19929;-63
2024/03/12 14:13:23;;;;;;;;;;;8.80;99.90;;;;;;4995209;28;20045;-63
2024/03/12 14:15:55;;;;;;;;;;;8.90;99.90;;;;;;4986092;28;19929;-64
2024/03/12 14:18:31;;;;;;;;;;;8.90;99.90;;;;;;4994201;28;20078;-64
2024/03/12 14:21:03;;;;;;;;;;;9.00;99.90;;;;;;4984960;28;19936;-64
2024/03/12 14:23:35;;;;;;;;;;;9.00;99.90;;;;;;4980921;28;19930;-64
2024/03/12 14:26:08;;;;;;;;;;;9.00;99.90;;;;;;4971870;28;19992;-64
2024/03/12 14:28:40;;;;;;;;;;;9.00;99.90;;;;;;4984110;28;20017;-64
2024/03/12 14:31:15;;;;;;;;;;;8.90;99.90;;;;;;4974380;28;19980;-63
2024/03/12 14:33:47;;;;;;;;;;;8.80;99.90;;;;;;4983332;28;20368;-64
2024/03/12 14:36:19;;;;;;;;;;;8.80;99.90;;;;;;4989167;28;19925;-64
2024/03/12 14:38:51;;;;;;;;;;;8.70;99.90;;;;;;4980731;28;20015;-63
2024/03/12 14:41:23;;;;;;;;;;;8.70;99.90;;;;;;4973297;28;19958;-64
2024/03/12 14:43:56;;;;;;;;;;;8.70;99.90;;;;;;4972174;28;19933;-64
2024/03/12 14:46:29;;;;;;;;;;;8.70;99.90;;;;;;4968947;28;19933;-64
2024/03/12 14:49:01;;;;;;;;;;;8.70;99.90;;;;;;4980230;28;19933;-64
2024/03/12 14:51:33;;;;;;;;;;;8.70;99.90;;;;;;4983568;28;20376;-64
2024/03/12 14:54:05;;;;;;;;;;;8.70;99.90;;;;;;4984198;28;19945;-64
2024/03/12 14:56:37;;;;;;;;;;;8.70;99.90;;;;;;4990442;28;20287;-64
2024/03/12 14:59:05;;;;;;;;;;;8.60;99.90;;;;;;4988316;28;19985;-64
2024/03/12 15:01:38;;;;;;;;;;;8.60;99.90;;;;;;4986157;28;20020;-64
2024/03/12 15:04:04;;;;;;;;;;;8.70;99.90;;;;;;4992815;28;19989;-64
2024/03/12 15:06:36;;;;;;;;;;;8.60;99.90;;;;;;4990693;28;19930;-65
2024/03/12 15:09:12;;;;;;;;;;;8.60;99.90;;;;;;4994509;28;19953;-64
2024/03/12 15:11:46;;;;;;;;;;;8.20;99.90;;;;;;4990460;28;19929;-63
2024/03/12 15:14:22;;;;;;;;;;;7.30;99.90;;;;;;4981232;28;19926;-63